Time;durP1;ratioP1;P1;durP2;ratioP2;P2;SDS_P1;SDS_P2;PMS_P1;PMS_P2;Temp;Humidity;BMP_temperature;BMP_pressure;BME280_temperature;BME280_humidity;BME280_pressure;Samples;Min_cycle;Max_cycle;Signal;HPM_P1;HPM_P2
2022/05/10 00:01:42;;;;;;;13.77;6.20;;;;;;;;;;5133377;28;20288;-68
2022/05/10 00:04:09;;;;;;;15.93;5.67;;;;;;;;;;5130622;27;20296;-68
2022/05/10 00:06:37;;;;;;;14.73;6.47;;;;;;;;;;5133475;28;20342;-68
2022/05/10 00:09:04;;;;;;;13.33;6.00;;;;;;;;;;5133618;28;20421;-68
2022/05/10 00:11:30;;;;;;;16.90;6.23;;;;;;;;;;5132978;28;20804;-68
2022/05/10 00:13:56;;;;;;;14.50;6.67;;;;;;;;;;5133604;28;20285;-68
2022/05/10 00:16:22;;;;;;;11.43;6.00;;;;;;;;;;5133179;28;20288;-68
2022/05/10 00:18:48;;;;;;;12.93;5.93;;;;;;;;;;5133709;28;20285;-68
2022/05/10 00:21:16;;;;;;;16.23;5.90;;;;;;;;;;5132214;28;20352;-68
2022/05/10 00:23:42;;;;;;;13.77;6.10;;;;;;;;;;5133597;27;20345;-68
2022/05/10 00:26:08;;;;;;;11.97;5.57;;;14.10;99.90;;;;;;5137435;27;20276;-68
2022/05/10 00:28:34;;;;;;;14.63;5.60;;;14.20;99.90;;;;;;5136265;27;20318;-68
2022/05/10 00:31:00;;;;;;;14.53;5.77;;;14.10;99.90;;;;;;5136245;27;20046;-68
2022/05/10 00:33:29;;;;;;;13.27;5.20;;;14.00;99.90;;;;;;5136721;27;20043;-68
2022/05/10 00:35:56;;;;;;;10.93;5.90;;;14.00;99.90;;;;;;5137396;27;20043;-68
2022/05/10 00:38:26;;;;;;;12.73;5.40;;;13.90;99.90;;;;;;5118261;27;20300;-68
2022/05/10 00:40:51;;;;;;;13.27;5.40;;;13.90;99.90;;;;;;5136076;27;20281;-68
2022/05/10 00:43:40;;;;;;;13.07;5.60;;;13.90;99.90;;;;;;5135699;27;20356;-69
2022/05/10 00:46:17;;;;;;;11.80;5.53;;;13.90;99.90;;;;;;5137358;27;20439;-68
2022/05/10 00:49:07;;;;;;;12.20;5.83;;;13.80;99.90;;;;;;5136159;27;20776;-68
2022/05/10 00:51:43;;;;;;;11.60;5.63;;;;;;;;;;5135551;27;20327;-68
2022/05/10 00:54:37;;;;;;;12.93;6.90;;;13.80;99.90;;;;;;5137061;27;20360;-68
2022/05/10 00:57:26;;;;;;;10.93;5.70;;;13.80;99.90;;;;;;5136850;27;20379;-68
2022/05/10 01:00:02;;;;;;;16.03;5.97;;;13.80;99.90;;;;;;5136654;27;20342;-68
2022/05/10 01:02:37;;;;;;;14.03;7.13;;;13.70;99.90;;;;;;5136645;27;20277;-68
2022/05/10 01:05:14;;;;;;;16.13;6.72;;;13.70;99.90;;;;;;5136882;27;20363;-68
2022/05/10 01:07:54;;;;;;;15.37;6.93;;;13.70;99.90;;;;;;5136527;27;20050;-68
2022/05/10 01:10:31;;;;;;;11.13;6.03;;;13.70;99.90;;;;;;5136470;27;20352;-69
2022/05/10 01:13:13;;;;;;;17.03;7.03;;;13.70;99.90;;;;;;5136342;27;20764;-68
2022/05/10 01:15:43;;;;;;;12.57;6.60;;;13.70;99.90;;;;;;5136338;27;20359;-68
2022/05/10 01:18:09;;;;;;;13.27;6.47;;;13.80;99.90;;;;;;5136678;27;20375;-68
2022/05/10 01:20:41;;;;;;;14.40;6.57;;;13.70;99.90;;;;;;5135171;27;20700;-69
2022/05/10 01:23:44;;;;;;;19.40;7.43;;;13.80;99.90;;;;;;5136129;27;20046;-68
2022/05/10 01:26:09;;;;;;;13.90;6.63;;;13.90;99.90;;;;;;5136470;27;20364;-69
2022/05/10 01:29:00;;;;;;;13.90;6.57;;;13.80;99.90;;;;;;5135976;27;20370;-69
2022/05/10 01:31:32;;;;;;;13.37;6.57;;;13.80;99.90;;;;;;5135248;27;20043;-68
2022/05/10 01:34:03;;;;;;;13.57;6.27;;;13.80;99.90;;;;;;5135552;27;20364;-68
2022/05/10 01:36:38;;;;;;;15.93;6.73;;;13.80;99.90;;;;;;5135578;27;20272;-68
2022/05/10 01:39:21;;;;;;;12.95;6.93;;;13.80;99.90;;;;;;5135415;27;20296;-68
2022/05/10 01:41:52;;;;;;;15.17;6.77;;;14.00;99.90;;;;;;5134903;27;20043;-68
2022/05/10 01:44:34;;;;;;;15.07;7.53;;;13.90;99.90;;;;;;5134884;27;20285;-68
2022/05/10 01:47:05;;;;;;;12.50;6.97;;;13.80;99.90;;;;;;5135925;27;20277;-68
2022/05/10 01:49:44;;;;;;;15.83;7.00;;;13.80;99.90;;;;;;5134342;27;20760;-68
2022/05/10 01:52:31;;;;;;;18.10;7.27;;;13.90;99.90;;;;;;5134978;27;20325;-68
2022/05/10 01:55:02;;;;;;;16.10;7.40;;;13.90;99.90;;;;;;5136071;27;20670;-68
2022/05/10 01:57:30;;;;;;;11.57;6.90;;;13.90;99.90;;;;;;5135441;27;20764;-69
2022/05/10 02:00:04;;;;;;;15.20;7.97;;;14.00;99.90;;;;;;5117388;27;20296;-68
2022/05/10 02:02:31;;;;;;;14.30;7.97;;;13.80;99.90;;;;;;5134414;27;20292;-68
2022/05/10 02:05:01;;;;;;;16.23;8.47;;;13.90;99.90;;;;;;5134445;27;20296;-68
2022/05/10 02:07:30;;;;;;;15.90;7.97;;;13.80;99.90;;;;;;5135308;27;20272;-69
2022/05/10 02:10:01;;;;;;;15.23;8.57;;;13.80;99.90;;;;;;5135682;27;20313;-68
2022/05/10 02:12:31;;;;;;;16.27;7.63;;;13.80;99.90;;;;;;5134829;27;20868;-68
2022/05/10 02:15:06;;;;;;;18.03;7.70;;;13.90;99.90;;;;;;5135344;27;20276;-68
2022/05/10 02:17:56;;;;;;;12.97;7.73;;;13.80;99.90;;;;;;5133860;27;20641;-68
2022/05/10 02:20:43;;;;;;;22.47;9.20;;;13.90;99.90;;;;;;5134616;27;20289;-68
2022/05/10 02:23:25;;;;;;;12.43;7.80;;;13.80;99.90;;;;;;5134263;27;20648;-68
2022/05/10 02:26:02;;;;;;;15.57;8.07;;;13.80;99.90;;;;;;5135020;27;20300;-68
2022/05/10 02:28:44;;;;;;;17.97;8.63;;;13.80;99.90;;;;;;5134901;27;20273;-69
2022/05/10 02:33:06;;;;;;;17.90;8.43;;;13.90;99.90;;;;;;5135092;27;20329;-68
2022/05/10 02:34:20;;;;;;;13.17;7.60;;;13.70;99.90;;;;;;5134986;27;20277;-68
2022/05/10 02:36:46;;;;;;;15.73;8.53;;;13.70;99.90;;;;;;5134267;27;20844;-68
2022/05/10 02:39:11;;;;;;;18.53;9.00;;;13.90;99.90;;;;;;5134889;27;20327;-68
2022/05/10 02:41:37;;;;;;;17.80;8.00;;;13.80;99.90;;;;;;5133312;27;20407;-69
2022/05/10 02:44:04;;;;;;;15.77;8.70;;;13.70;99.90;;;;;;5135045;27;20180;-68
2022/05/10 02:46:30;;;;;;;14.57;8.60;;;13.80;99.90;;;;;;5133885;27;20446;-69
2022/05/10 02:48:55;;;;;;;14.90;8.67;;;13.90;99.90;;;;;;5134565;27;20320;-68
2022/05/10 02:51:22;;;;;;;16.60;9.03;;;13.80;99.90;;;;;;5134701;27;20047;-68
2022/05/10 02:53:48;;;;;;;24.53;8.97;;;13.80;99.90;;;;;;5134388;27;20047;-68
2022/05/10 02:56:16;;;;;;;15.67;7.63;;;13.80;99.90;;;;;;5133836;27;20292;-68
2022/05/10 02:59:00;;;;;;;14.67;9.30;;;13.90;99.90;;;;;;5132685;27;20434;-68
2022/05/10 03:01:43;;;;;;;17.70;8.20;;;14.00;99.90;;;;;;5134771;27;20284;-68
2022/05/10 03:04:10;;;;;;;17.87;7.77;;;13.80;99.90;;;;;;5134560;27;20280;-68
2022/05/10 03:06:38;;;;;;;18.70;8.70;;;14.00;99.90;;;;;;5134200;27;20376;-68
2022/05/10 03:09:05;;;;;;;17.43;8.27;;;13.80;99.90;;;;;;5134386;27;20332;-68
2022/05/10 03:11:31;;;;;;;17.07;8.70;;;13.90;99.90;;;;;;5134371;27;20281;-68
2022/05/10 03:13:57;;;;;;;12.63;7.73;;;14.00;99.90;;;;;;5134144;27;20359;-68
2022/05/10 03:16:24;;;;;;;17.53;8.90;;;13.90;99.90;;;;;;5133161;27;20422;-68
2022/05/10 03:18:50;;;;;;;15.83;8.63;;;13.90;99.90;;;;;;5132697;27;20047;-68
2022/05/10 03:21:16;;;;;;;21.20;8.07;;;13.80;99.90;;;;;;5134208;27;20276;-68
2022/05/10 03:23:42;;;;;;;12.23;8.37;;;13.90;99.90;;;;;;5132743;27;20281;-68
2022/05/10 03:26:11;;;;;;;12.67;7.13;;;13.80;99.90;;;;;;5134480;27;20284;-68
2022/05/10 03:28:36;;;;;;;17.87;8.93;;;13.70;99.90;;;;;;5133841;27;20338;-69
2022/05/10 03:31:04;;;;;;;16.90;8.37;;;13.90;99.90;;;;;;5134073;27;20737;-68
2022/05/10 03:33:30;;;;;;;15.57;7.93;;;13.90;99.90;;;;;;5134049;27;20058;-68
2022/05/10 03:35:56;;;;;;;15.37;7.80;;;13.80;99.90;;;;;;5132452;27;20293;-68
2022/05/10 03:38:21;;;;;;;12.77;7.93;;;13.90;99.90;;;;;;5132907;27;20058;-68
2022/05/10 03:40:47;;;;;;;16.43;8.20;;;13.90;99.90;;;;;;5133320;27;20073;-68
2022/05/10 03:43:13;;;;;;;14.83;8.30;;;13.90;99.90;;;;;;5132908;27;20047;-68
2022/05/10 03:45:39;;;;;;;17.53;8.63;;;14.00;99.90;;;;;;5132637;28;20043;-68
2022/05/10 03:48:05;;;;;;;19.60;9.17;;;13.90;99.90;;;;;;5133851;27;20043;-68
2022/05/10 03:50:31;;;;;;;13.50;8.07;;;13.90;99.90;;;;;;5133909;27;20047;-68
2022/05/10 03:52:57;;;;;;;15.57;9.13;;;13.80;99.90;;;;;;5133552;27;20287;-68
2022/05/10 03:55:25;;;;;;;13.30;8.20;;;13.90;99.90;;;;;;5133800;28;20281;-68
2022/05/10 03:57:52;;;;;;;19.30;9.00;;;14.00;99.90;;;;;;5133818;27;20035;-68
2022/05/10 04:00:27;;;;;;;13.33;8.37;;;14.00;99.90;;;;;;5137992;27;20387;-68
2022/05/10 04:02:55;;;;;;;14.20;8.95;;;13.90;99.90;;;;;;5137710;27;20733;-68
2022/05/10 04:05:22;;;;;;;13.93;9.10;;;14.00;99.90;;;;;;5137223;27;20398;-68
2022/05/10 04:07:48;;;;;;;14.97;8.90;;;14.10;99.90;;;;;;5137571;27;20836;-68
2022/05/10 04:10:15;;;;;;;15.17;8.37;;;14.00;99.90;;;;;;5137832;27;20312;-68
2022/05/10 04:12:41;;;;;;;16.33;8.50;;;14.00;99.90;;;;;;5137440;27;20047;-69
2022/05/10 04:15:15;;;;;;;14.07;8.53;;;14.00;99.90;;;;;;5137757;27;20277;-68
2022/05/10 04:17:44;;;;;;;16.20;9.20;;;14.10;99.90;;;;;;5136169;27;20301;-69
2022/05/10 04:20:12;;;;;;;20.27;9.10;;;14.00;99.90;;;;;;5137615;27;20422;-68
2022/05/10 04:22:38;;;;;;;15.63;8.50;;;14.30;99.90;;;;;;5136588;27;20756;-68
2022/05/10 04:25:05;;;;;;;19.80;8.83;;;14.10;99.90;;;;;;5136235;27;20784;-68
2022/05/10 04:27:31;;;;;;;18.50;10.40;;;14.10;99.90;;;;;;5137695;27;20333;-68
2022/05/10 04:29:57;;;;;;;16.53;8.73;;;14.20;99.90;;;;;;5137179;27;20281;-68
2022/05/10 04:32:22;;;;;;;16.87;8.90;;;14.20;99.90;;;;;;5136426;27;20132;-68
2022/05/10 04:34:48;;;;;;;15.17;8.73;;;14.30;99.90;;;;;;5136060;27;20057;-68
2022/05/10 04:37:14;;;;;;;13.40;7.87;;;14.20;99.90;;;;;;5137311;27;20035;-69
2022/05/10 04:42:23;;;;;;;15.43;8.30;;;14.40;99.90;;;;;;5137330;27;20047;-67
2022/05/10 04:44:49;;;;;;;17.10;8.50;;;14.30;99.90;;;;;;5135526;27;20289;-69
2022/05/10 04:47:15;;;;;;;19.63;9.43;;;14.50;99.90;;;;;;5135855;27;20085;-69
2022/05/10 04:49:40;;;;;;;13.47;8.40;;;14.40;99.90;;;;;;5136189;27;20047;-69
2022/05/10 04:52:08;;;;;;;14.10;8.77;;;14.60;99.90;;;;;;5136773;27;20510;-68
2022/05/10 04:54:34;;;;;;;16.93;8.90;;;14.60;99.90;;;;;;5136231;27;20394;-68
2022/05/10 04:57:01;;;;;;;15.47;9.27;;;14.60;99.90;;;;;;5135544;27;20296;-68
2022/05/10 04:59:26;;;;;;;18.27;8.57;;;14.60;99.90;;;;;;5137099;27;20063;-69
2022/05/10 05:01:52;;;;;;;16.07;9.80;;;14.60;99.90;;;;;;5135342;27;20816;-69
2022/05/10 05:04:18;;;;;;;17.60;9.87;;;14.50;99.90;;;;;;5135828;27;20047;-68
2022/05/10 05:06:44;;;;;;;17.93;10.60;;;;;;;;;;5135628;27;20043;-66
2022/05/10 05:09:11;;;;;;;16.07;9.10;;;;;;;;;;5135090;27;20074;-67
2022/05/10 05:11:36;;;;;;;15.90;9.43;;;14.70;99.90;;;;;;5135961;27;20288;-67
2022/05/10 05:14:02;;;;;;;16.37;8.47;;;14.70;99.90;;;;;;5136234;27;20288;-66
2022/05/10 05:16:28;;;;;;;13.27;9.00;;;14.70;99.90;;;;;;5136712;27;20051;-66
2022/05/10 05:18:53;;;;;;;14.87;9.40;;;14.70;99.90;;;;;;5136201;27;20122;-66
2022/05/10 05:21:19;;;;;;;19.77;9.93;;;14.80;99.90;;;;;;5136781;27;20130;-66
2022/05/10 05:23:46;;;;;;;13.47;8.77;;;14.80;99.90;;;;;;5135433;27;20042;-70
2022/05/10 05:26:12;;;;;;;16.77;9.90;;;14.90;99.90;;;;;;5136185;27;20135;-68
2022/05/10 05:28:38;;;;;;;14.17;9.23;;;14.90;99.90;;;;;;5136364;27;20281;-68
2022/05/10 05:31:05;;;;;;;15.03;9.33;;;15.00;99.90;;;;;;5135023;27;20670;-69
2022/05/10 05:33:31;;;;;;;17.60;9.00;;;15.00;99.90;;;;;;5135477;27;20372;-68
2022/05/10 05:35:57;;;;;;;15.60;8.43;;;15.00;99.90;;;;;;5135906;27;20392;-68
2022/05/10 05:38:24;;;;;;;14.37;8.47;;;15.00;99.90;;;;;;5136148;27;20043;-68
2022/05/10 05:40:50;;;;;;;11.20;8.60;;;15.10;99.90;;;;;;5100891;27;20381;-70
2022/05/10 05:43:20;;;;;;;15.37;9.10;;;15.10;99.90;;;;;;5136023;27;20284;-67
2022/05/10 05:45:47;;;;;;;13.63;8.27;;;15.20;99.90;;;;;;5136018;27;20791;-68
2022/05/10 05:48:13;;;;;;;13.97;7.80;;;15.30;99.90;;;;;;5135618;27;20745;-68
2022/05/10 05:50:39;;;;;;;16.20;8.77;;;15.40;99.90;;;;;;5134983;27;20291;-68
2022/05/10 05:53:05;;;;;;;14.67;8.60;;;15.40;99.90;;;;;;5135613;27;20103;-68
2022/05/10 05:55:30;;;;;;;13.77;9.10;;;15.50;99.90;;;;;;5135987;27;20050;-68
2022/05/10 05:57:57;;;;;;;13.07;8.33;;;15.60;99.90;;;;;;5135445;27;20480;-67
2022/05/10 06:00:25;;;;;;;15.73;9.10;;;15.70;99.90;;;;;;5134396;27;20407;-66
2022/05/10 06:02:51;;;;;;;15.90;8.73;;;15.80;99.90;;;;;;5134363;27;20285;-66
2022/05/10 06:05:19;;;;;;;12.50;8.27;;;15.80;99.90;;;;;;5135498;27;20421;-66
2022/05/10 06:07:45;;;;;;;13.03;7.90;;;15.90;99.90;;;;;;5135652;27;20280;-66
2022/05/10 06:10:12;;;;;;;14.50;8.33;;;16.00;99.90;;;;;;5134269;27;20292;-66
2022/05/10 06:12:39;;;;;;;15.33;8.83;;;16.20;99.90;;;;;;5135481;27;20050;-67
2022/05/10 06:15:12;;;;;;;14.90;8.50;;;16.40;99.90;;;;;;5133982;27;20314;-67
2022/05/10 06:17:40;;;;;;;10.53;7.40;;;16.70;99.90;;;;;;5135479;27;20759;-66
2022/05/10 06:20:07;;;;;;;13.23;8.20;;;17.00;99.90;;;;;;5134996;27;20281;-67
2022/05/10 06:22:34;;;;;;;12.10;7.60;;;17.20;99.90;;;;;;5117438;27;20581;-66
2022/05/10 06:25:00;;;;;;;16.10;8.43;;;17.40;99.10;;;;;;5135146;27;20635;-67
2022/05/10 06:27:26;;;;;;;12.37;7.60;;;17.40;98.40;;;;;;5135160;27;20273;-66
2022/05/10 06:29:52;;;;;;;13.87;7.50;;;17.50;98.00;;;;;;5135163;27;20281;-67
2022/05/10 06:32:23;;;;;;;11.87;7.60;;;17.50;97.90;;;;;;5133722;27;20252;-66
2022/05/10 06:34:50;;;;;;;20.63;7.77;;;17.50;97.40;;;;;;5135040;27;20039;-67
2022/05/10 06:40:12;;;;;;;13.00;7.70;;;17.50;97.50;;;;;;5134612;27;20272;-67
2022/05/10 06:42:38;;;;;;;12.73;7.33;;;17.50;97.20;;;;;;5135192;27;20285;-66
2022/05/10 06:45:09;;;;;;;11.83;7.60;;;17.60;97.30;;;;;;5134512;27;20308;-67
2022/05/10 06:47:39;;;;;;;11.83;6.90;;;;;;;;;;5135063;27;20050;-66
2022/05/10 06:50:06;;;;;;;13.77;6.70;;;;;;;;;;5134420;27;20341;-67
2022/05/10 06:52:32;;;;;;;12.10;7.57;;;;;;;;;;5133514;27;20331;-67
2022/05/10 06:54:58;;;;;;;15.17;7.60;;;;;;;;;;5134636;27;20288;-67
2022/05/10 06:57:24;;;;;;;12.10;6.93;;;18.30;94.50;;;;;;5134472;27;20084;-66
2022/05/10 06:59:50;;;;;;;11.50;7.47;;;;;;;;;;5134290;27;20059;-66
2022/05/10 07:02:16;;;;;;;12.30;7.20;;;;;;;;;;5134195;27;20087;-67
2022/05/10 07:04:41;;;;;;;13.53;6.67;;;18.70;99.90;;;;;;5134481;27;20047;-67
2022/05/10 07:07:07;;;;;;;9.73;6.47;;;18.60;94.10;;;;;;5134133;27;20043;-67
2022/05/10 07:09:33;;;;;;;9.40;6.10;;;18.70;93.90;;;;;;5134335;27;20092;-67
2022/05/10 07:11:58;;;;;;;15.03;7.13;;;18.80;93.80;;;;;;5116250;27;20074;-66
2022/05/10 07:14:24;;;;;;;13.40;6.77;;;18.90;93.20;;;;;;5133639;27;20047;-66
2022/05/10 07:16:50;;;;;;;11.13;6.67;;;19.00;92.70;;;;;;5133066;27;20047;-66
2022/05/10 07:19:16;;;;;;;12.23;6.83;;;18.90;92.60;;;;;;5132785;27;20043;-66
2022/05/10 07:21:42;;;;;;;16.50;7.33;;;18.90;92.60;;;;;;5132937;27;20043;-66
2022/05/10 07:24:07;;;;;;;14.77;7.37;;;18.80;92.30;;;;;;5133903;27;20110;-67
2022/05/10 07:26:33;;;;;;;14.03;6.43;;;18.80;92.30;;;;;;5132983;27;20074;-67
2022/05/10 07:28:59;;;;;;;14.23;7.00;;;18.70;93.00;;;;;;5133328;27;20054;-67
2022/05/10 07:31:24;;;;;;;13.97;7.17;;;18.70;93.20;;;;;;5133900;27;20078;-67
2022/05/10 07:33:50;;;;;;;10.10;6.57;;;18.60;93.40;;;;;;5132542;27;20498;-70
2022/05/10 07:36:25;;;;;;;10.10;6.97;;;18.60;93.50;;;;;;5115830;27;20058;-69
2022/05/10 07:38:51;;;;;;;12.15;6.53;;;18.60;93.50;;;;;;5134109;27;20097;-69
2022/05/10 07:41:21;;;;;;;14.60;6.50;;;18.60;93.40;;;;;;5132487;27;20107;-70
2022/05/10 07:43:48;;;;;;;10.93;6.10;;;18.70;93.30;;;;;;5134012;27;20391;-69
2022/05/10 07:46:14;;;;;;;14.93;6.30;;;18.60;93.40;;;;;;5133622;27;20035;-69
2022/05/10 07:48:39;;;;;;;17.30;6.80;;;18.70;93.40;;;;;;5134004;27;20051;-69
2022/05/10 07:51:05;;;;;;;14.30;6.47;;;18.80;93.20;;;;;;5133542;27;20104;-70
2022/05/10 07:53:32;;;;;;;10.90;5.37;;;18.90;92.80;;;;;;5133771;28;20116;-70
2022/05/10 07:55:59;;;;;;;10.83;6.20;;;19.00;92.30;;;;;;5133905;27;20463;-69
2022/05/10 07:58:25;;;;;;;12.27;5.43;;;19.10;92.10;;;;;;5133398;27;20103;-69
2022/05/10 08:00:50;;;;;;;12.20;4.83;;;19.10;92.10;;;;;;5132427;28;20050;-69
2022/05/10 08:03:23;;;;;;;11.17;6.03;;;19.10;91.80;;;;;;5133452;27;20039;-69
2022/05/10 08:05:50;;;;;;;9.23;5.17;;;19.20;92.00;;;;;;5133697;27;20502;-69
2022/05/10 08:08:19;;;;;;;12.63;5.27;;;19.30;92.20;;;;;;5133427;27;20054;-69
2022/05/10 08:10:46;;;;;;;12.33;4.97;;;19.30;93.10;;;;;;5133830;27;20043;-68
2022/05/10 08:13:17;;;;;;;10.23;4.83;;;;;;;;;;5133414;27;20043;-69
2022/05/10 08:15:44;;;;;;;10.43;4.73;;;;;;;;;;5133613;28;20039;-69
2022/05/10 08:18:11;;;;;;;12.80;5.03;;;19.70;88.60;;;;;;5133299;28;20048;-70
2022/05/10 08:20:38;;;;;;;10.33;4.77;;;19.90;87.70;;;;;;5133614;27;20043;-70
2022/05/10 08:23:06;;;;;;;15.43;5.43;;;19.90;86.10;;;;;;5133613;27;20092;-70
2022/05/10 08:25:32;;;;;;;8.60;4.73;;;20.10;84.80;;;;;;5132048;28;20130;-69
2022/05/10 08:27:58;;;;;;;13.67;4.67;;;20.20;85.00;;;;;;5133529;27;20151;-68
2022/05/10 08:30:24;;;;;;;14.63;4.90;;;20.30;85.00;;;;;;5115194;28;20082;-70
2022/05/10 08:32:50;;;;;;;12.90;4.53;;;20.20;83.80;;;;;;5132305;28;20395;-69
2022/05/10 08:35:15;;;;;;;13.20;4.70;;;20.30;84.30;;;;;;5133119;28;20043;-69
2022/05/10 08:37:41;;;;;;;8.27;4.40;;;20.30;83.50;;;;;;5133075;27;20142;-67
2022/05/10 08:40:17;;;;;;;11.07;4.83;;;20.30;82.60;;;;;;5132013;28;20031;-67
2022/05/10 08:42:48;;;;;;;9.57;4.70;;;20.40;81.70;;;;;;5131452;28;20036;-66
2022/05/10 08:45:14;;;;;;;11.33;4.73;;;20.40;81.30;;;;;;5133821;27;20098;-68
2022/05/10 08:47:42;;;;;;;13.83;5.13;;;20.50;80.00;;;;;;5135770;27;20132;-67
2022/05/10 08:50:10;;;;;;;9.70;4.77;;;20.50;79.60;;;;;;5132697;27;20051;-67
2022/05/10 08:52:40;;;;;;;19.60;5.63;;;20.60;77.60;;;;;;5136388;27;20046;-67
2022/05/10 08:55:12;;;;;;;10.23;4.77;;;20.70;77.20;;;;;;5136489;27;20117;-67
2022/05/10 08:57:38;;;;;;;11.07;5.07;;;;;;;;;;5136206;27;20039;-68
2022/05/10 09:00:10;;;;;;;12.23;5.07;;;20.70;99.90;;;;;;5118126;27;20086;-68
2022/05/10 09:02:44;;;;;;;13.73;5.10;;;;;;;;;;5136752;27;20126;-69
2022/05/10 09:05:28;;;;;;;17.25;4.95;;;20.90;99.90;;;;;;5136789;27;20043;-68
2022/05/10 09:08:27;;;;;;;10.50;5.17;;;20.90;94.10;;;;;;5136016;27;20051;-69
2022/05/10 09:11:12;;;;;;;11.53;5.03;;;21.10;87.90;;;;;;5136398;27;20515;-69
2022/05/10 09:13:40;;;;;;;13.73;5.18;;;21.20;79.90;;;;;;5135325;27;20395;-69
2022/05/10 09:16:09;;;;;;;18.80;5.87;;;21.40;72.70;;;;;;5135609;27;20040;-69
2022/05/10 09:24:33;;;;;;;17.10;5.70;;;21.50;70.30;;;;;;5529344;22;20069;-68
2022/05/10 09:27:05;;;;;;;12.70;5.40;;;21.60;70.10;;;;;;5015264;28;20485;-69
2022/05/10 09:29:35;;;;;;;12.43;5.77;;;21.70;69.70;;;;;;5016019;28;20046;-71
2022/05/10 09:35:26;;;;;;;12.50;5.63;;;21.90;69.10;;;;;;5011253;28;20057;-70
2022/05/10 09:37:59;;;;;;;14.50;6.23;;;21.80;68.60;;;;;;5015805;28;20057;-71
2022/05/10 09:40:32;;;;;;;8.27;5.57;;;21.80;68.00;;;;;;5015927;28;20104;-71
2022/05/10 09:43:23;;;;;;;11.07;5.63;;;21.70;67.30;;;;;;5015805;28;20050;-70
2022/05/10 09:46:04;;;;;;;17.07;5.90;;;21.70;68.70;;;;;;5015675;28;20057;-70
2022/05/10 09:48:30;;;;;;;12.13;6.13;;;21.70;68.40;;;;;;5016271;28;20041;-72
2022/05/10 09:50:55;;;;;;;14.13;6.60;;;21.70;68.50;;;;;;5015627;28;20046;-71
2022/05/10 09:53:30;;;;;;;10.43;6.70;;;21.70;68.40;;;;;;4997956;28;20042;-71
2022/05/10 09:55:58;;;;;;;10.88;6.25;;;21.70;67.90;;;;;;5015196;28;20052;-70
2022/05/10 09:58:28;;;;;;;13.00;6.60;;;21.80;67.40;;;;;;5013908;28;20129;-70
2022/05/10 10:00:56;;;;;;;16.97;6.07;;;22.00;93.90;;;;;;5015420;28;20092;-70
2022/05/10 10:03:42;;;;;;;18.93;6.80;;;;;;;;;;5014345;28;20050;-74
2022/05/10 10:06:28;;;;;;;13.23;5.93;;;22.10;97.20;;;;;;5014334;28;20116;-73
2022/05/10 10:08:55;;;;;;;12.40;5.67;;;22.40;92.50;;;;;;5014692;28;20497;-73
2022/05/10 10:11:21;;;;;;;14.03;5.73;;;22.40;64.00;;;;;;5015976;28;20050;-73
2022/05/10 10:13:55;;;;;;;17.80;5.73;;;22.40;63.70;;;;;;5014328;28;20050;-70
2022/05/10 10:16:31;;;;;;;23.13;5.93;;;22.50;63.70;;;;;;5015163;28;20089;-70
2022/05/10 10:19:01;;;;;;;11.80;5.97;;;22.60;64.50;;;;;;5013799;28;20041;-74
2022/05/10 10:21:36;;;;;;;13.37;4.80;;;22.70;62.70;;;;;;5014985;28;20053;-72
2022/05/10 10:24:04;;;;;;;13.20;5.60;;;22.70;61.00;;;;;;5013549;28;20058;-75
2022/05/10 10:26:46;;;;;;;16.03;5.50;;;22.60;59.70;;;;;;5014605;28;20516;-77
2022/05/10 10:29:43;;;;;;;13.07;5.40;;;22.60;59.50;;;;;;5014183;28;20053;-73
2022/05/10 10:32:17;;;;;;;13.60;4.83;;;22.50;60.50;;;;;;5013064;28;20444;-74
2022/05/10 10:34:52;;;;;;;10.98;5.20;;;22.40;61.30;;;;;;5014800;28;20049;-74
2022/05/10 10:38:07;;;;;;;10.17;5.70;;;22.40;60.50;;;;;;5015179;28;20046;-74
2022/05/10 10:40:39;;;;;;;12.95;6.13;;;22.40;60.30;;;;;;5006389;28;20123;-80
2022/05/10 10:43:23;;;;;;;14.37;6.37;;;22.20;60.80;;;;;;5013921;28;20050;-73
2022/05/10 10:45:57;;;;;;;12.53;6.43;;;22.20;60.30;;;;;;5014826;28;20052;-75
2022/05/10 10:48:52;;;;;;;15.17;6.90;;;22.10;60.40;;;;;;5014608;28;20489;-73
2022/05/10 10:51:18;;;;;;;12.98;6.60;;;21.90;61.90;;;;;;5013666;28;20288;-72
2022/05/10 10:53:46;;;;;;;15.50;7.60;;;21.70;62.70;;;;;;5014424;28;20096;-73
2022/05/10 10:56:21;;;;;;;16.10;7.37;;;21.70;63.70;;;;;;5014325;28;20081;-73
2022/05/10 10:58:46;;;;;;;19.13;7.63;;;21.60;64.80;;;;;;5013632;28;20085;-73
2022/05/10 11:01:29;;;;;;;15.00;7.77;;;21.60;65.60;;;;;;5014246;28;20476;-74
2022/05/10 11:04:08;;;;;;;12.87;7.07;;;21.70;66.90;;;;;;5015062;28;20050;-73
2022/05/10 11:06:40;;;;;;;13.40;7.83;;;21.70;67.70;;;;;;5013967;28;20489;-75
2022/05/10 11:09:24;;;;;;;17.77;7.70;;;21.80;67.70;;;;;;5012358;28;20034;-75
2022/05/10 11:12:33;;;;;;;12.63;8.20;;;21.80;68.20;;;;;;5014705;28;20042;-74
2022/05/10 11:15:22;;;;;;;17.87;9.53;;;21.90;68.80;;;;;;5014112;28;20057;-91
2022/05/10 11:17:56;;;;;;;13.97;8.77;;;22.00;68.70;;;;;;5014068;28;20042;-77
2022/05/10 11:20:40;;;;;;;16.33;8.32;;;22.10;69.80;;;;;;5013046;28;20174;-73
2022/05/10 11:23:07;;;;;;;14.57;8.67;;;22.10;71.70;;;;;;5014228;28;20122;-73
2022/05/10 11:26:05;;;;;;;16.67;9.00;;;22.20;72.10;;;;;;5012701;28;20069;-74
2022/05/10 11:29:10;;;;;;;16.33;9.17;;;22.20;72.30;;;;;;5013890;28;20120;-73
2022/05/10 11:31:40;;;;;;;14.13;8.75;;;22.30;72.70;;;;;;4972601;28;20050;-75
2022/05/10 11:34:42;;;;;;;15.73;7.27;;;22.40;73.00;;;;;;4972475;28;20043;-75
2022/05/10 11:37:13;;;;;;;13.23;7.93;;;22.70;76.20;;;;;;4982102;28;20141;-75
2022/05/10 11:40:17;;;;;;;16.23;6.27;;;22.70;71.30;;;;;;5014365;28;20045;-78
2022/05/10 11:43:24;;;;;;;10.90;4.80;;;22.70;69.50;;;;;;5014282;28;20128;-84
2022/05/10 11:46:03;;;;;;;11.23;4.73;;;22.70;65.90;;;;;;5045813;28;20053;-76
2022/05/10 11:48:38;;;;;;;11.20;4.30;;;22.80;65.70;;;;;;5013344;28;20385;-75
2022/05/10 11:51:38;;;;;;;14.50;3.93;;;22.80;64.00;;;;;;5013548;28;20096;-75
2022/05/10 11:54:30;;;;;;;12.63;4.83;;;22.80;62.10;;;;;;4996193;28;20453;-76
2022/05/10 11:56:58;;;;;;;9.10;4.20;;;22.80;61.50;;;;;;5012211;28;20107;-76
2022/05/10 11:59:27;;;;;;;10.77;3.70;;;22.70;61.10;;;;;;5044730;28;20060;-77
2022/05/10 12:01:57;;;;;;;9.33;4.03;;;22.70;61.20;;;;;;5012984;28;20042;-77
2022/05/10 12:04:45;;;;;;;14.10;3.60;;;22.80;61.20;;;;;;5012711;28;20054;-77
2022/05/10 12:07:19;;;;;;;12.67;3.67;;;22.70;62.30;;;;;;4996364;28;20393;-77
2022/05/10 12:09:51;;;;;;;11.67;3.40;;;22.70;62.80;;;;;;5013380;28;20082;-74
2022/05/10 12:12:32;;;;;;;12.27;3.20;;;22.80;61.30;;;;;;5012304;28;20053;-74
2022/05/10 12:21:19;;;;;;;11.17;2.80;;;23.00;56.10;;;;;;5012892;28;20498;-76
2022/05/10 12:21:20;;;;;;;11.23;3.10;;;23.00;55.40;;;;;;5015405;28;20382;-76
2022/05/10 12:24:17;;;;;;;8.23;2.83;;;23.10;55.70;;;;;;5015911;28;20144;-75
2022/05/10 12:26:53;;;;;;;9.03;3.67;;;23.10;55.40;;;;;;5015639;28;20141;-76
2022/05/10 12:29:37;;;;;;;7.77;3.43;;;23.00;56.10;;;;;;5015802;28;20123;-78
2022/05/10 12:32:11;;;;;;;10.20;2.85;;;23.00;56.30;;;;;;5015358;28;20054;-76
2022/05/10 12:34:47;;;;;;;6.93;2.70;;;22.90;56.20;;;;;;5017805;28;20068;-76
2022/05/10 12:37:22;;;;;;;6.17;2.97;;;22.90;56.20;;;;;;5017379;28;20045;-75
2022/05/10 12:40:08;;;;;;;8.30;2.40;;;22.80;56.40;;;;;;5017371;28;20104;-76
2022/05/10 12:43:01;;;;;;;8.40;2.30;;;22.80;54.80;;;;;;5016756;28;20085;-75
2022/05/10 12:45:38;;;;;;;10.73;2.10;;;22.70;53.50;;;;;;5017085;28;20053;-75
2022/05/10 12:48:10;;;;;;;9.07;1.73;;;22.60;51.50;;;;;;5016735;28;20129;-76
2022/05/10 12:50:38;;;;;;;6.43;1.87;;;22.60;48.60;;;;;;5016681;28;20088;-74
2022/05/10 12:53:23;;;;;;;11.43;1.90;;;22.50;45.70;;;;;;5016774;28;20440;-78
2022/05/10 12:55:51;;;;;;;11.13;2.13;;;22.40;43.10;;;;;;5017037;28;20390;-75
2022/05/10 12:58:24;;;;;;;7.57;1.80;;;22.20;43.80;;;;;;5016056;28;20076;-72
2022/05/10 13:00:54;;;;;;;7.90;1.40;;;;;;;;;;5017351;28;20120;-77
2022/05/10 13:03:22;;;;;;;8.10;1.60;;;;;;;;;;5015557;28;20046;-75
2022/05/10 13:05:51;;;;;;;5.50;1.50;;;;;;;;;;5016520;28;20563;-76
2022/05/10 13:08:21;;;;;;;8.10;1.60;;;;;;;;;;5015752;28;20448;-72
2022/05/10 13:10:48;;;;;;;4.83;1.83;;;;;;;;;;5016055;28;20077;-74
2022/05/10 13:13:17;;;;;;;5.60;1.80;;;;;;;;;;5015232;28;20180;-72
2022/05/10 13:15:45;;;;;;;5.67;1.63;;;21.70;44.20;;;;;;5016225;28;20081;-74
2022/05/10 13:18:19;;;;;;;6.10;1.60;;;21.60;45.60;;;;;;5016547;28;20069;-75
2022/05/10 13:20:52;;;;;;;5.93;1.77;;;21.50;45.90;;;;;;5016151;28;20052;-74
2022/05/10 13:23:19;;;;;;;6.20;1.70;;;21.50;46.50;;;;;;5015073;28;20050;-75
2022/05/10 13:25:47;;;;;;;5.23;1.67;;;21.40;46.00;;;;;;5015191;28;20057;-75
2022/05/10 13:28:14;;;;;;;7.90;1.67;;;21.40;46.30;;;;;;5014777;28;20077;-75
2022/05/10 13:30:47;;;;;;;10.07;2.00;;;21.40;46.20;;;;;;5015252;28;20108;-73